Alma, CO (80420)

4:47 AM MST on December 19, 2014 (GMT -0700)
Sun Mountain Subdivision | Change Station
CLOSE
Current Station
Personal Weather Station
Location: Fairplay, CO
Elevation: 11010 ft
Nearby Weather Stations

Elev 11010 ft 39.23 °N, 106.09 °W | Updated 33 seconds ago

Overcast
Overcast
11.7 °F
Feels Like -1 °F
N
9.0
Wind Variable Wind from NW

Today
High -- | Low -- °F
--% Chance of Precip.
Yesterday
High -- | Low -- °F
Precip. -- in
7:19 AM 4:43 PM
Waning Crescent, 8% visible
Pressure 30.05 in
Visibility -9999.0 miles
Clouds Scattered Clouds 400 ft
Scattered Clouds 700 ft
Overcast 1300 ft
Windchill -1 °F
Dew Point 4 °F
Humidity 71%
Rainfall 0.00 in
Snow Depth Not available.
UV 0 out of 12
Pollen .10 out of 12
Air Quality Not available.
Flu Activity Not available.
METAR KCCU 191135Z AUTO 28021G26KT SCT004 SCT007 OVC013 M11/M15 A3005 RMK AO2 PWINO

More Conditions Fewer Conditions

Pressure 30.05 in
Visibility -9999.0 miles
Clouds Scattered Clouds 400 ft
Scattered Clouds 700 ft
Overcast 1300 ft
Windchill -1 °F
Dew Point 4 °F
Humidity 71%
Rainfall 0.00 in
Snow Depth Not available.
UV 0 out of 12
Pollen .10 out of 12
Air Quality Not available.
Flu Activity Not available.
METAR KCCU 191135Z AUTO 28021G26KT SCT004 SCT007 OVC013 M11/M15 A3005 RMK AO2 PWINO

More Conditions Fewer Conditions

10-Day Weather Forecast

Almanac

Astronomy

Dec. 19, 2014 Rise Set
Actual Time
Civil Twilight
Nautical Twilight
Astronomical Twilight
Moon
Length of Visible Light
Length of Day
Tomorrow will be .
, % of the Moon is Illuminated

Today's Extremes

State Highs State Lows

Community

WunderPhotos

Upload Photos

1,778,966 photos uploaded!

WunderBlogs® & News

Nearby

Air Quality

  Air Quality AQ Index Pollutant
Not available.

Snow Depth

Station Depth Elevation

Earthquake Activity

City Distance Mag. Time & Date
Minimum magnitude displayed is 2.5.

Coastal Water Temperatures

Place Temperature

Nearby Weather Stations